sensor_id;sensor_type;location;lat;lon;timestamp;temperature;humidity
48936;DHT22;34745;52.276;10.528;2023-04-03T00:00:34;2.30;1.00
48936;DHT22;34745;52.276;10.528;2023-04-03T00:03:02;2.30;1.00
48936;DHT22;34745;52.276;10.528;2023-04-03T00:05:29;2.30;1.00
48936;DHT22;34745;52.276;10.528;2023-04-03T00:07:58;2.20;1.00
48936;DHT22;34745;52.276;10.528;2023-04-03T00:10:25;2.20;1.00
48936;DHT22;34745;52.276;10.528;2023-04-03T00:12:52;2.10;1.00
48936;DHT22;34745;52.276;10.528;2023-04-03T00:15:19;2.10;1.00
48936;DHT22;34745;52.276;10.528;2023-04-03T00:17:46;2.10;1.00
48936;DHT22;34745;52.276;10.528;2023-04-03T00:20:14;2.10;1.00
48936;DHT22;34745;52.276;10.528;2023-04-03T00:22:41;2.00;1.00
48936;DHT22;34745;52.276;10.528;2023-04-03T00:25:10;2.00;1.00
48936;DHT22;34745;52.276;10.528;2023-04-03T00:27:37;2.10;1.00
48936;DHT22;34745;52.276;10.528;2023-04-03T00:30:09;2.00;1.00
48936;DHT22;34745;52.276;10.528;2023-04-03T00:32:37;2.00;1.00
48936;DHT22;34745;52.276;10.528;2023-04-03T00:35:05;2.00;1.00
48936;DHT22;34745;52.276;10.528;2023-04-03T00:37:32;2.00;1.00
48936;DHT22;34745;52.276;10.528;2023-04-03T00:40:00;2.00;1.00
48936;DHT22;34745;52.276;10.528;2023-04-03T00:42:28;1.90;1.00
48936;DHT22;34745;52.276;10.528;2023-04-03T00:45:29;1.80;1.00
48936;DHT22;34745;52.276;10.528;2023-04-03T00:47:57;1.80;1.00
48936;DHT22;34745;52.276;10.528;2023-04-03T00:50:27;1.80;1.00
48936;DHT22;34745;52.276;10.528;2023-04-03T00:52:55;1.80;1.00
48936;DHT22;34745;52.276;10.528;2023-04-03T00:55:23;1.80;1.00
48936;DHT22;34745;52.276;10.528;2023-04-03T00:57:52;1.70;1.00
48936;DHT22;34745;52.276;10.528;2023-04-03T01:00:21;1.70;1.00
48936;DHT22;34745;52.276;10.528;2023-04-03T01:02:54;1.70;1.00
48936;DHT22;34745;52.276;10.528;2023-04-03T01:05:21;1.70;1.00
48936;DHT22;34745;52.276;10.528;2023-04-03T01:07:49;1.70;1.00
48936;DHT22;34745;52.276;10.528;2023-04-03T01:10:19;1.70;1.00
48936;DHT22;34745;52.276;10.528;2023-04-03T01:12:49;1.70;1.00
48936;DHT22;34745;52.276;10.528;2023-04-03T01:15:20;1.70;1.00
48936;DHT22;34745;52.276;10.528;2023-04-03T01:17:48;1.60;1.00
48936;DHT22;34745;52.276;10.528;2023-04-03T01:20:50;1.70;1.00
48936;DHT22;34745;52.276;10.528;2023-04-03T01:23:43;1.60;1.00
48936;DHT22;34745;52.276;10.528;2023-04-03T01:26:12;1.50;1.00
48936;DHT22;34745;52.276;10.528;2023-04-03T01:28:40;1.50;1.00
48936;DHT22;34745;52.276;10.528;2023-04-03T01:31:14;1.50;1.00
48936;DHT22;34745;52.276;10.528;2023-04-03T01:33:44;1.40;1.00
48936;DHT22;34745;52.276;10.528;2023-04-03T01:36:16;1.40;1.00
48936;DHT22;34745;52.276;10.528;2023-04-03T01:38:44;1.40;1.00
48936;DHT22;34745;52.276;10.528;2023-04-03T01:41:11;1.30;1.00
48936;DHT22;34745;52.276;10.528;2023-04-03T01:43:38;1.20;1.00
48936;DHT22;34745;52.276;10.528;2023-04-03T01:46:05;1.20;4.40
48936;DHT22;34745;52.276;10.528;2023-04-03T01:48:32;1.20;7.80
48936;DHT22;34745;52.276;10.528;2023-04-03T01:51:00;1.20;8.70
48936;DHT22;34745;52.276;10.528;2023-04-03T01:53:27;1.10;10.00
48936;DHT22;34745;52.276;10.528;2023-04-03T01:55:54;1.10;11.30
48936;DHT22;34745;52.276;10.528;2023-04-03T01:58:21;1.10;11.50
48936;DHT22;34745;52.276;10.528;2023-04-03T02:00:48;1.00;15.70
48936;DHT22;34745;52.276;10.528;2023-04-03T02:03:15;1.00;18.40
48936;DHT22;34745;52.276;10.528;2023-04-03T02:05:43;0.90;22.60
48936;DHT22;34745;52.276;10.528;2023-04-03T02:08:11;1.00;23.10
48936;DHT22;34745;52.276;10.528;2023-04-03T02:10:39;1.00;22.40
48936;DHT22;34745;52.276;10.528;2023-04-03T02:13:06;1.00;22.90
48936;DHT22;34745;52.276;10.528;2023-04-03T02:15:33;1.00;22.40
48936;DHT22;34745;52.276;10.528;2023-04-03T02:18:00;0.90;23.90
48936;DHT22;34745;52.276;10.528;2023-04-03T02:20:33;0.90;25.80
48936;DHT22;34745;52.276;10.528;2023-04-03T02:23:01;0.90;26.70
48936;DHT22;34745;52.276;10.528;2023-04-03T02:25:30;0.80;29.60
48936;DHT22;34745;52.276;10.528;2023-04-03T02:27:57;0.80;32.00
48936;DHT22;34745;52.276;10.528;2023-04-03T02:30:24;0.80;34.70
48936;DHT22;34745;52.276;10.528;2023-04-03T02:32:52;0.80;35.20
48936;DHT22;34745;52.276;10.528;2023-04-03T02:35:19;0.80;35.90
48936;DHT22;34745;52.276;10.528;2023-04-03T02:37:47;0.80;33.10
48936;DHT22;34745;52.276;10.528;2023-04-03T02:40:14;0.90;32.20
48936;DHT22;34745;52.276;10.528;2023-04-03T02:42:42;0.80;31.50
48936;DHT22;34745;52.276;10.528;2023-04-03T02:45:10;0.80;31.40
48936;DHT22;34745;52.276;10.528;2023-04-03T02:47:37;0.80;33.10
48936;DHT22;34745;52.276;10.528;2023-04-03T02:50:05;0.70;43.20
48936;DHT22;34745;52.276;10.528;2023-04-03T02:52:32;0.70;40.00
48936;DHT22;34745;52.276;10.528;2023-04-03T02:54:59;0.70;38.70
48936;DHT22;34745;52.276;10.528;2023-04-03T02:57:26;0.60;41.30
48936;DHT22;34745;52.276;10.528;2023-04-03T02:59:55;0.60;45.70
48936;DHT22;34745;52.276;10.528;2023-04-03T03:02:22;0.60;47.60
48936;DHT22;34745;52.276;10.528;2023-04-03T03:04:50;0.70;48.40
48936;DHT22;34745;52.276;10.528;2023-04-03T03:07:17;0.70;48.30
48936;DHT22;34745;52.276;10.528;2023-04-03T03:09:44;0.70;49.30
48936;DHT22;34745;52.276;10.528;2023-04-03T03:12:11;0.70;48.80
48936;DHT22;34745;52.276;10.528;2023-04-03T03:14:38;0.70;54.20
48936;DHT22;34745;52.276;10.528;2023-04-03T03:17:08;0.70;46.60
48936;DHT22;34745;52.276;10.528;2023-04-03T03:19:35;0.60;46.00
48936;DHT22;34745;52.276;10.528;2023-04-03T03:22:02;0.70;46.50
48936;DHT22;34745;52.276;10.528;2023-04-03T03:24:29;0.70;46.60
48936;DHT22;34745;52.276;10.528;2023-04-03T03:26:56;0.60;47.10
48936;DHT22;34745;52.276;10.528;2023-04-03T03:29:23;0.60;44.90
48936;DHT22;34745;52.276;10.528;2023-04-03T03:31:51;0.60;45.10
48936;DHT22;34745;52.276;10.528;2023-04-03T03:34:19;0.50;47.60
48936;DHT22;34745;52.276;10.528;2023-04-03T03:36:46;0.50;47.10
48936;DHT22;34745;52.276;10.528;2023-04-03T03:39:13;0.50;52.30
48936;DHT22;34745;52.276;10.528;2023-04-03T03:41:41;0.50;54.60
48936;DHT22;34745;52.276;10.528;2023-04-03T03:44:08;0.50;50.80
48936;DHT22;34745;52.276;10.528;2023-04-03T03:46:35;0.40;51.70
48936;DHT22;34745;52.276;10.528;2023-04-03T03:49:02;0.40;52.70
48936;DHT22;34745;52.276;10.528;2023-04-03T03:51:31;0.50;55.00
48936;DHT22;34745;52.276;10.528;2023-04-03T03:53:58;0.40;53.20
48936;DHT22;34745;52.276;10.528;2023-04-03T03:56:24;0.40;52.50
48936;DHT22;34745;52.276;10.528;2023-04-03T03:58:52;0.40;54.20
48936;DHT22;34745;52.276;10.528;2023-04-03T04:01:19;0.40;57.40
48936;DHT22;34745;52.276;10.528;2023-04-03T04:03:47;0.40;55.40
48936;DHT22;34745;52.276;10.528;2023-04-03T04:06:14;0.40;54.80
48936;DHT22;34745;52.276;10.528;2023-04-03T04:08:43;0.40;55.90
48936;DHT22;34745;52.276;10.528;2023-04-03T04:11:10;0.40;56.10
48936;DHT22;34745;52.276;10.528;2023-04-03T04:13:37;0.30;56.10
48936;DHT22;34745;52.276;10.528;2023-04-03T04:16:05;0.30;58.00
48936;DHT22;34745;52.276;10.528;2023-04-03T04:18:33;0.30;62.20
48936;DHT22;34745;52.276;10.528;2023-04-03T04:21:00;0.20;66.10
48936;DHT22;34745;52.276;10.528;2023-04-03T04:23:27;0.30;66.00
48936;DHT22;34745;52.276;10.528;2023-04-03T04:25:55;0.20;66.30
48936;DHT22;34745;52.276;10.528;2023-04-03T04:28:22;0.20;70.60
48936;DHT22;34745;52.276;10.528;2023-04-03T04:30:50;0.20;74.20
48936;DHT22;34745;52.276;10.528;2023-04-03T04:33:17;0.30;78.90
48936;DHT22;34745;52.276;10.528;2023-04-03T04:35:46;0.20;80.00
48936;DHT22;34745;52.276;10.528;2023-04-03T04:38:13;0.20;82.00
48936;DHT22;34745;52.276;10.528;2023-04-03T04:40:41;0.10;85.10
48936;DHT22;34745;52.276;10.528;2023-04-03T04:43:09;0.20;83.70
48936;DHT22;34745;52.276;10.528;2023-04-03T04:45:37;0.20;80.70
48936;DHT22;34745;52.276;10.528;2023-04-03T04:48:05;0.20;82.40
48936;DHT22;34745;52.276;10.528;2023-04-03T04:50:32;0.20;83.10
48936;DHT22;34745;52.276;10.528;2023-04-03T04:52:59;0.10;83.60
48936;DHT22;34745;52.276;10.528;2023-04-03T04:55:26;0.20;83.10
48936;DHT22;34745;52.276;10.528;2023-04-03T04:57:53;0.20;82.40
48936;DHT22;34745;52.276;10.528;2023-04-03T05:00:21;0.20;81.20
48936;DHT22;34745;52.276;10.528;2023-04-03T05:02:48;0.20;81.00
48936;DHT22;34745;52.276;10.528;2023-04-03T05:05:16;0.20;83.70
48936;DHT22;34745;52.276;10.528;2023-04-03T05:07:43;0.20;80.60
48936;DHT22;34745;52.276;10.528;2023-04-03T05:10:10;0.20;80.80
48936;DHT22;34745;52.276;10.528;2023-04-03T05:12:37;0.20;78.50
48936;DHT22;34745;52.276;10.528;2023-04-03T05:15:06;0.20;81.00
48936;DHT22;34745;52.276;10.528;2023-04-03T05:17:34;0.20;79.40
48936;DHT22;34745;52.276;10.528;2023-04-03T05:20:03;0.10;78.10
48936;DHT22;34745;52.276;10.528;2023-04-03T05:22:31;0.20;80.20
48936;DHT22;34745;52.276;10.528;2023-04-03T05:24:58;0.20;83.00
48936;DHT22;34745;52.276;10.528;2023-04-03T05:27:25;0.20;84.40
48936;DHT22;34745;52.276;10.528;2023-04-03T05:29:55;0.30;81.40
48936;DHT22;34745;52.276;10.528;2023-04-03T05:32:22;0.30;80.00
48936;DHT22;34745;52.276;10.528;2023-04-03T05:34:51;0.40;79.40
48936;DHT22;34745;52.276;10.528;2023-04-03T05:37:19;0.50;74.40
48936;DHT22;34745;52.276;10.528;2023-04-03T05:39:46;0.50;73.80
48936;DHT22;34745;52.276;10.528;2023-04-03T05:42:13;0.60;70.30
48936;DHT22;34745;52.276;10.528;2023-04-03T05:44:41;0.60;65.90
48936;DHT22;34745;52.276;10.528;2023-04-03T05:47:09;0.70;64.90
48936;DHT22;34745;52.276;10.528;2023-04-03T05:49:36;0.70;64.50
48936;DHT22;34745;52.276;10.528;2023-04-03T05:52:16;0.80;58.30
48936;DHT22;34745;52.276;10.528;2023-04-03T05:54:44;0.80;58.90
48936;DHT22;34745;52.276;10.528;2023-04-03T05:57:15;0.90;54.10
48936;DHT22;34745;52.276;10.528;2023-04-03T05:59:43;1.00;49.80
48936;DHT22;34745;52.276;10.528;2023-04-03T06:02:11;1.00;46.10
48936;DHT22;34745;52.276;10.528;2023-04-03T06:04:39;1.10;42.80
48936;DHT22;34745;52.276;10.528;2023-04-03T06:07:08;1.10;41.00
48936;DHT22;34745;52.276;10.528;2023-04-03T06:09:38;1.20;40.90
48936;DHT22;34745;52.276;10.528;2023-04-03T06:12:06;1.30;36.10
48936;DHT22;34745;52.276;10.528;2023-04-03T06:14:33;1.40;29.70
48936;DHT22;34745;52.276;10.528;2023-04-03T06:17:00;1.40;21.20
48936;DHT22;34745;52.276;10.528;2023-04-03T06:19:28;1.50;16.10
48936;DHT22;34745;52.276;10.528;2023-04-03T06:21:55;1.50;14.10
48936;DHT22;34745;52.276;10.528;2023-04-03T06:24:23;1.50;13.10
48936;DHT22;34745;52.276;10.528;2023-04-03T06:26:53;1.60;11.70
48936;DHT22;34745;52.276;10.528;2023-04-03T06:29:20;1.70;7.80
48936;DHT22;34745;52.276;10.528;2023-04-03T06:31:47;1.80;1.00
48936;DHT22;34745;52.276;10.528;2023-04-03T06:34:15;1.90;1.00
48936;DHT22;34745;52.276;10.528;2023-04-03T06:36:46;1.90;1.00
48936;DHT22;34745;52.276;10.528;2023-04-03T06:39:15;2.00;1.00
48936;DHT22;34745;52.276;10.528;2023-04-03T06:41:43;2.00;1.00
48936;DHT22;34745;52.276;10.528;2023-04-03T06:44:12;2.00;1.00
48936;DHT22;34745;52.276;10.528;2023-04-03T06:46:40;2.10;1.00
48936;DHT22;34745;52.276;10.528;2023-04-03T06:49:07;2.20;1.00
48936;DHT22;34745;52.276;10.528;2023-04-03T06:51:35;2.20;1.00
48936;DHT22;34745;52.276;10.528;2023-04-03T06:54:04;2.30;1.00
48936;DHT22;34745;52.276;10.528;2023-04-03T06:56:32;2.40;1.00
48936;DHT22;34745;52.276;10.528;2023-04-03T06:59:00;2.50;1.00
48936;DHT22;34745;52.276;10.528;2023-04-03T07:01:29;2.50;1.00
48936;DHT22;34745;52.276;10.528;2023-04-03T07:03:57;2.60;1.00
48936;DHT22;34745;52.276;10.528;2023-04-03T07:06:25;2.60;1.00
48936;DHT22;34745;52.276;10.528;2023-04-03T07:08:54;2.70;1.00
48936;DHT22;34745;52.276;10.528;2023-04-03T07:11:21;2.80;1.00
48936;DHT22;34745;52.276;10.528;2023-04-03T07:13:49;2.90;1.00
48936;DHT22;34745;52.276;10.528;2023-04-03T07:16:16;3.00;1.00
48936;DHT22;34745;52.276;10.528;2023-04-03T07:18:44;3.10;1.00
48936;DHT22;34745;52.276;10.528;2023-04-03T07:21:12;3.20;1.00
48936;DHT22;34745;52.276;10.528;2023-04-03T07:23:39;3.30;1.00
48936;DHT22;34745;52.276;10.528;2023-04-03T07:26:07;3.40;1.00
48936;DHT22;34745;52.276;10.528;2023-04-03T07:28:34;3.50;1.00
48936;DHT22;34745;52.276;10.528;2023-04-03T07:31:05;3.50;1.00
48936;DHT22;34745;52.276;10.528;2023-04-03T07:33:34;3.60;1.00
48936;DHT22;34745;52.276;10.528;2023-04-03T07:36:03;3.70;1.00
48936;DHT22;34745;52.276;10.528;2023-04-03T07:38:31;3.80;1.00
48936;DHT22;34745;52.276;10.528;2023-04-03T07:40:58;3.90;1.00
48936;DHT22;34745;52.276;10.528;2023-04-03T07:43:25;4.00;1.00
48936;DHT22;34745;52.276;10.528;2023-04-03T07:45:52;4.10;1.00
48936;DHT22;34745;52.276;10.528;2023-04-03T07:48:23;4.20;1.00
48936;DHT22;34745;52.276;10.528;2023-04-03T07:50:50;4.30;1.00
48936;DHT22;34745;52.276;10.528;2023-04-03T07:53:19;4.40;1.00
48936;DHT22;34745;52.276;10.528;2023-04-03T07:55:46;4.50;1.00
48936;DHT22;34745;52.276;10.528;2023-04-03T07:58:15;4.60;1.00
48936;DHT22;34745;52.276;10.528;2023-04-03T08:00:43;4.60;1.00
48936;DHT22;34745;52.276;10.528;2023-04-03T08:03:11;4.60;1.00
48936;DHT22;34745;52.276;10.528;2023-04-03T08:05:40;4.70;1.00
48936;DHT22;34745;52.276;10.528;2023-04-03T08:08:09;4.80;1.00
48936;DHT22;34745;52.276;10.528;2023-04-03T08:10:39;4.80;1.00
48936;DHT22;34745;52.276;10.528;2023-04-03T08:13:08;4.90;1.00
48936;DHT22;34745;52.276;10.528;2023-04-03T08:15:35;4.90;1.00
48936;DHT22;34745;52.276;10.528;2023-04-03T08:18:04;5.00;1.00
48936;DHT22;34745;52.276;10.528;2023-04-03T08:20:31;5.00;1.00
48936;DHT22;34745;52.276;10.528;2023-04-03T08:22:58;5.10;1.00
48936;DHT22;34745;52.276;10.528;2023-04-03T08:25:26;5.20;1.00
48936;DHT22;34745;52.276;10.528;2023-04-03T08:27:54;5.20;1.00
48936;DHT22;34745;52.276;10.528;2023-04-03T08:30:21;5.40;1.00
48936;DHT22;34745;52.276;10.528;2023-04-03T08:32:49;5.50;1.00
48936;DHT22;34745;52.276;10.528;2023-04-03T08:35:16;5.60;1.00
48936;DHT22;34745;52.276;10.528;2023-04-03T08:37:43;5.70;1.00
48936;DHT22;34745;52.276;10.528;2023-04-03T08:40:14;5.80;1.00
48936;DHT22;34745;52.276;10.528;2023-04-03T08:42:50;5.90;1.00
48936;DHT22;34745;52.276;10.528;2023-04-03T08:45:25;5.80;1.00
48936;DHT22;34745;52.276;10.528;2023-04-03T08:47:58;5.90;1.00
48936;DHT22;34745;52.276;10.528;2023-04-03T08:50:31;5.90;1.00
48936;DHT22;34745;52.276;10.528;2023-04-03T08:53:02;5.90;1.00
48936;DHT22;34745;52.276;10.528;2023-04-03T08:55:37;5.90;1.00
48936;DHT22;34745;52.276;10.528;2023-04-03T08:58:07;6.10;1.00
48936;DHT22;34745;52.276;10.528;2023-04-03T09:00:44;6.50;1.00
48936;DHT22;34745;52.276;10.528;2023-04-03T09:03:16;6.70;1.00
48936;DHT22;34745;52.276;10.528;2023-04-03T09:05:47;6.90;1.00
48936;DHT22;34745;52.276;10.528;2023-04-03T09:08:22;6.70;1.00
48936;DHT22;34745;52.276;10.528;2023-04-03T09:10:52;6.50;1.00
48936;DHT22;34745;52.276;10.528;2023-04-03T09:13:27;6.40;1.00
48936;DHT22;34745;52.276;10.528;2023-04-03T09:16:00;6.30;1.00
48936;DHT22;34745;52.276;10.528;2023-04-03T09:18:33;6.10;1.00
48936;DHT22;34745;52.276;10.528;2023-04-03T09:21:08;6.00;1.00
48936;DHT22;34745;52.276;10.528;2023-04-03T09:23:42;6.00;1.00
48936;DHT22;34745;52.276;10.528;2023-04-03T09:26:15;6.10;1.00
48936;DHT22;34745;52.276;10.528;2023-04-03T09:28:43;6.10;1.00
48936;DHT22;34745;52.276;10.528;2023-04-03T09:31:22;6.20;1.00
48936;DHT22;34745;52.276;10.528;2023-04-03T09:33:53;6.30;1.00
48936;DHT22;34745;52.276;10.528;2023-04-03T09:36:41;6.30;1.00
48936;DHT22;34745;52.276;10.528;2023-04-03T09:39:11;6.30;1.00
48936;DHT22;34745;52.276;10.528;2023-04-03T09:41:39;6.20;1.00
48936;DHT22;34745;52.276;10.528;2023-04-03T09:44:20;6.30;1.00
48936;DHT22;34745;52.276;10.528;2023-04-03T09:46:49;6.40;1.00
48936;DHT22;34745;52.276;10.528;2023-04-03T09:49:17;6.60;1.00
48936;DHT22;34745;52.276;10.528;2023-04-03T09:51:45;6.70;1.00
48936;DHT22;34745;52.276;10.528;2023-04-03T09:54:34;6.60;1.00
48936;DHT22;34745;52.276;10.528;2023-04-03T09:57:12;6.60;1.00
48936;DHT22;34745;52.276;10.528;2023-04-03T09:59:44;6.60;1.00
48936;DHT22;34745;52.276;10.528;2023-04-03T10:02:36;6.50;1.00
48936;DHT22;34745;52.276;10.528;2023-04-03T10:05:04;6.40;1.00
48936;DHT22;34745;52.276;10.528;2023-04-03T10:07:50;6.30;1.00
48936;DHT22;34745;52.276;10.528;2023-04-03T10:10:29;6.20;1.00
48936;DHT22;34745;52.276;10.528;2023-04-03T10:13:04;6.30;1.00
48936;DHT22;34745;52.276;10.528;2023-04-03T10:15:36;6.30;1.00
48936;DHT22;34745;52.276;10.528;2023-04-03T10:18:20;6.40;1.00
48936;DHT22;34745;52.276;10.528;2023-04-03T10:20:51;6.40;1.00
48936;DHT22;34745;52.276;10.528;2023-04-03T10:23:26;6.50;1.00
48936;DHT22;34745;52.276;10.528;2023-04-03T10:26:02;6.50;1.00
48936;DHT22;34745;52.276;10.528;2023-04-03T10:28:39;6.60;1.00
48936;DHT22;34745;52.276;10.528;2023-04-03T10:31:16;6.70;1.00
48936;DHT22;34745;52.276;10.528;2023-04-03T10:33:54;6.60;1.00
48936;DHT22;34745;52.276;10.528;2023-04-03T10:36:34;6.60;1.00
48936;DHT22;34745;52.276;10.528;2023-04-03T10:39:10;6.80;1.00
48936;DHT22;34745;52.276;10.528;2023-04-03T10:41:49;7.00;1.00
48936;DHT22;34745;52.276;10.528;2023-04-03T10:44:38;7.40;1.00
48936;DHT22;34745;52.276;10.528;2023-04-03T10:47:16;7.70;1.00
48936;DHT22;34745;52.276;10.528;2023-04-03T10:49:54;7.70;1.00
48936;DHT22;34745;52.276;10.528;2023-04-03T10:52:29;7.70;1.00
48936;DHT22;34745;52.276;10.528;2023-04-03T10:55:04;7.90;1.00
48936;DHT22;34745;52.276;10.528;2023-04-03T10:57:34;8.10;1.00
48936;DHT22;34745;52.276;10.528;2023-04-03T11:00:05;8.10;1.00
48936;DHT22;34745;52.276;10.528;2023-04-03T11:02:37;8.00;1.00
48936;DHT22;34745;52.276;10.528;2023-04-03T11:05:17;7.80;1.00
48936;DHT22;34745;52.276;10.528;2023-04-03T11:07:47;7.70;1.00
48936;DHT22;34745;52.276;10.528;2023-04-03T11:10:21;7.50;1.00
48936;DHT22;34745;52.276;10.528;2023-04-03T11:12:54;7.40;1.00
48936;DHT22;34745;52.276;10.528;2023-04-03T11:15:24;7.30;1.00
48936;DHT22;34745;52.276;10.528;2023-04-03T11:17:55;7.10;1.00
48936;DHT22;34745;52.276;10.528;2023-04-03T11:20:29;7.00;1.00
48936;DHT22;34745;52.276;10.528;2023-04-03T11:23:02;6.90;1.00
48936;DHT22;34745;52.276;10.528;2023-04-03T11:25:32;7.00;1.00
48936;DHT22;34745;52.276;10.528;2023-04-03T11:28:02;7.10;1.00
48936;DHT22;34745;52.276;10.528;2023-04-03T11:30:38;7.00;1.00
48936;DHT22;34745;52.276;10.528;2023-04-03T11:33:37;7.20;1.00
48936;DHT22;34745;52.276;10.528;2023-04-03T11:36:11;8.60;1.40
48936;DHT22;34745;52.276;10.528;2023-04-03T11:39:02;9.80;99.90
48936;DHT22;34745;52.276;10.528;2023-04-03T11:41:34;10.70;99.90
48936;DHT22;34745;52.276;10.528;2023-04-03T11:44:03;11.40;99.90
48936;DHT22;34745;52.276;10.528;2023-04-03T11:46:55;11.70;99.90
48936;DHT22;34745;52.276;10.528;2023-04-03T11:49:52;12.30;99.90
48936;DHT22;34745;52.276;10.528;2023-04-03T11:53:00;11.90;99.90
48936;DHT22;34745;52.276;10.528;2023-04-03T11:55:44;10.80;99.90
48936;DHT22;34745;52.276;10.528;2023-04-03T11:58:15;10.00;99.90
48936;DHT22;34745;52.276;10.528;2023-04-03T12:00:55;9.90;99.90
48936;DHT22;34745;52.276;10.528;2023-04-03T12:03:57;10.00;99.90
48936;DHT22;34745;52.276;10.528;2023-04-03T12:06:49;10.60;99.90
48936;DHT22;34745;52.276;10.528;2023-04-03T12:09:34;10.30;99.90
48936;DHT22;34745;52.276;10.528;2023-04-03T12:12:38;11.10;99.90
48936;DHT22;34745;52.276;10.528;2023-04-03T12:21:10;10.50;99.90
48936;DHT22;34745;52.276;10.528;2023-04-03T12:23:58;10.40;99.90
48936;DHT22;34745;52.276;10.528;2023-04-03T12:26:27;11.50;99.90
48936;DHT22;34745;52.276;10.528;2023-04-03T12:29:15;12.10;99.90
48936;DHT22;34745;52.276;10.528;2023-04-03T12:31:54;11.50;99.90
48936;DHT22;34745;52.276;10.528;2023-04-03T12:34:35;10.70;99.90
48936;DHT22;34745;52.276;10.528;2023-04-03T12:37:14;10.00;99.90
48936;DHT22;34745;52.276;10.528;2023-04-03T12:39:52;9.60;99.90
48936;DHT22;34745;52.276;10.528;2023-04-03T12:42:45;12.00;99.90
48936;DHT22;34745;52.276;10.528;2023-04-03T12:45:21;12.30;99.90
48936;DHT22;34745;52.276;10.528;2023-04-03T12:47:49;12.00;99.90
48936;DHT22;34745;52.276;10.528;2023-04-03T12:50:21;11.60;99.90
48936;DHT22;34745;52.276;10.528;2023-04-03T12:53:00;11.20;99.90
48936;DHT22;34745;52.276;10.528;2023-04-03T12:55:29;13.00;99.90
48936;DHT22;34745;52.276;10.528;2023-04-03T12:58:13;13.20;99.90
48936;DHT22;34745;52.276;10.528;2023-04-03T13:00:40;15.50;99.90
48936;DHT22;34745;52.276;10.528;2023-04-03T13:03:21;17.70;99.90
48936;DHT22;34745;52.276;10.528;2023-04-03T13:05:49;19.30;99.90
48936;DHT22;34745;52.276;10.528;2023-04-03T13:08:17;18.30;99.90
48936;DHT22;34745;52.276;10.528;2023-04-03T13:10:53;16.20;99.90
48936;DHT22;34745;52.276;10.528;2023-04-03T13:13:23;14.30;99.90
48936;DHT22;34745;52.276;10.528;2023-04-03T13:15:51;13.50;99.90
48936;DHT22;34745;52.276;10.528;2023-04-03T13:18:27;14.70;99.90
48936;DHT22;34745;52.276;10.528;2023-04-03T13:20:59;16.90;99.90
48936;DHT22;34745;52.276;10.528;2023-04-03T13:23:28;18.80;99.90
48936;DHT22;34745;52.276;10.528;2023-04-03T13:25:55;19.20;99.90
48936;DHT22;34745;52.276;10.528;2023-04-03T13:28:26;17.70;99.90
48936;DHT22;34745;52.276;10.528;2023-04-03T13:30:56;15.70;99.90
48936;DHT22;34745;52.276;10.528;2023-04-03T13:33:27;13.90;99.90
48936;DHT22;34745;52.276;10.528;2023-04-03T13:35:56;12.40;99.90
48936;DHT22;34745;52.276;10.528;2023-04-03T13:38:26;11.50;99.90
48936;DHT22;34745;52.276;10.528;2023-04-03T13:40:55;10.70;99.90
48936;DHT22;34745;52.276;10.528;2023-04-03T13:43:26;10.40;99.90
48936;DHT22;34745;52.276;10.528;2023-04-03T13:45:59;10.10;99.90
48936;DHT22;34745;52.276;10.528;2023-04-03T13:48:27;10.60;99.90
48936;DHT22;34745;52.276;10.528;2023-04-03T13:51:04;13.40;99.90
48936;DHT22;34745;52.276;10.528;2023-04-03T13:53:33;16.00;99.90
48936;DHT22;34745;52.276;10.528;2023-04-03T13:56:09;18.00;99.90
48936;DHT22;34745;52.276;10.528;2023-04-03T13:58:51;19.80;99.90
48936;DHT22;34745;52.276;10.528;2023-04-03T14:01:26;20.30;99.90
48936;DHT22;34745;52.276;10.528;2023-04-03T14:04:01;18.50;99.90
48936;DHT22;34745;52.276;10.528;2023-04-03T14:06:29;16.50;99.90
48936;DHT22;34745;52.276;10.528;2023-04-03T14:08:57;14.80;99.90
48936;DHT22;34745;52.276;10.528;2023-04-03T14:11:28;13.40;99.90
48936;DHT22;34745;52.276;10.528;2023-04-03T14:14:00;12.60;99.90
48936;DHT22;34745;52.276;10.528;2023-04-03T14:16:32;12.20;99.90
48936;DHT22;34745;52.276;10.528;2023-04-03T14:18:59;13.20;1.00
48936;DHT22;34745;52.276;10.528;2023-04-03T14:21:26;14.40;99.90
48936;DHT22;34745;52.276;10.528;2023-04-03T14:23:53;15.00;99.90
48936;DHT22;34745;52.276;10.528;2023-04-03T14:26:23;14.70;99.90
48936;DHT22;34745;52.276;10.528;2023-04-03T14:28:52;14.60;99.90
48936;DHT22;34745;52.276;10.528;2023-04-03T14:31:21;15.40;99.90
48936;DHT22;34745;52.276;10.528;2023-04-03T14:33:49;15.90;99.90
48936;DHT22;34745;52.276;10.528;2023-04-03T14:36:28;15.30;99.90
48936;DHT22;34745;52.276;10.528;2023-04-03T14:38:57;14.80;99.90
48936;DHT22;34745;52.276;10.528;2023-04-03T14:41:26;13.90;99.90
48936;DHT22;34745;52.276;10.528;2023-04-03T14:43:53;12.70;99.90
48936;DHT22;34745;52.276;10.528;2023-04-03T14:46:25;11.90;99.90
48936;DHT22;34745;52.276;10.528;2023-04-03T14:49:12;11.30;99.90
48936;DHT22;34745;52.276;10.528;2023-04-03T14:51:41;10.60;99.90
48936;DHT22;34745;52.276;10.528;2023-04-03T14:54:13;11.30;99.90
48936;DHT22;34745;52.276;10.528;2023-04-03T14:56:41;12.90;99.90
48936;DHT22;34745;52.276;10.528;2023-04-03T14:59:10;14.50;99.90
48936;DHT22;34745;52.276;10.528;2023-04-03T15:01:39;16.10;99.90
48936;DHT22;34745;52.276;10.528;2023-04-03T15:04:11;17.10;99.90
48936;DHT22;34745;52.276;10.528;2023-04-03T15:06:39;16.60;99.90
48936;DHT22;34745;52.276;10.528;2023-04-03T15:09:12;15.30;99.90
48936;DHT22;34745;52.276;10.528;2023-04-03T15:11:41;13.90;99.90
48936;DHT22;34745;52.276;10.528;2023-04-03T15:14:09;12.60;99.90
48936;DHT22;34745;52.276;10.528;2023-04-03T15:16:36;11.70;99.90
48936;DHT22;34745;52.276;10.528;2023-04-03T15:19:04;11.10;99.90
48936;DHT22;34745;52.276;10.528;2023-04-03T15:21:33;11.90;99.90
48936;DHT22;34745;52.276;10.528;2023-04-03T15:24:01;13.10;99.90
48936;DHT22;34745;52.276;10.528;2023-04-03T15:26:28;13.10;99.90
48936;DHT22;34745;52.276;10.528;2023-04-03T15:28:56;14.10;99.90
48936;DHT22;34745;52.276;10.528;2023-04-03T15:31:23;15.10;99.90
48936;DHT22;34745;52.276;10.528;2023-04-03T15:33:50;15.70;99.90
48936;DHT22;34745;52.276;10.528;2023-04-03T15:36:18;15.90;99.90
48936;DHT22;34745;52.276;10.528;2023-04-03T15:39:00;16.00;99.90
48936;DHT22;34745;52.276;10.528;2023-04-03T15:41:28;16.00;99.90
48936;DHT22;34745;52.276;10.528;2023-04-03T15:43:55;15.30;99.90
48936;DHT22;34745;52.276;10.528;2023-04-03T15:46:22;14.20;99.90
48936;DHT22;34745;52.276;10.528;2023-04-03T15:48:49;13.10;99.90
48936;DHT22;34745;52.276;10.528;2023-04-03T15:51:18;12.10;99.90
48936;DHT22;34745;52.276;10.528;2023-04-03T15:53:45;11.50;99.90
48936;DHT22;34745;52.276;10.528;2023-04-03T15:56:12;11.80;99.90
48936;DHT22;34745;52.276;10.528;2023-04-03T15:58:39;12.10;99.90
48936;DHT22;34745;52.276;10.528;2023-04-03T16:01:09;12.40;99.90